createdAt,value
2019-03-27T00:01:03.231Z,98.10
2019-03-27T00:02:39.596Z,98.00
2019-03-27T00:04:15.793Z,98.00
2019-03-27T00:05:52.216Z,98.00
2019-03-27T00:07:28.666Z,97.90
2019-03-27T00:09:06.519Z,98.00
2019-03-27T00:10:42.513Z,98.00
2019-03-27T00:12:18.671Z,98.00
2019-03-27T00:13:55.041Z,97.90
2019-03-27T00:15:32.886Z,97.90
2019-03-27T00:17:09.125Z,97.90
2019-03-27T00:18:45.306Z,97.90
2019-03-27T00:20:21.374Z,97.90
2019-03-27T00:21:57.783Z,97.80
2019-03-27T00:23:34.209Z,97.80
2019-03-27T00:25:11.316Z,97.80
2019-03-27T00:26:47.625Z,97.80
2019-03-27T00:28:23.861Z,97.70
2019-03-27T00:30:00.330Z,97.70
2019-03-27T00:31:36.793Z,97.80
2019-03-27T00:33:13.034Z,97.70
2019-03-27T00:34:48.765Z,97.70
2019-03-27T00:36:25.030Z,97.80
2019-03-27T00:38:01.276Z,97.80
2019-03-27T00:39:37.519Z,97.80
2019-03-27T00:41:13.883Z,97.90
2019-03-27T00:43:10.631Z,97.80
2019-03-27T00:44:46.890Z,97.70
2019-03-27T00:46:23.198Z,97.80
2019-03-27T00:47:59.515Z,97.80
2019-03-27T00:49:35.779Z,98.00
2019-03-27T00:51:13.200Z,97.90
2019-03-27T00:52:49.444Z,97.90
2019-03-27T00:54:25.617Z,98.00
2019-03-27T00:56:01.859Z,98.00
2019-03-27T00:57:38.372Z,98.00
2019-03-27T00:59:14.605Z,98.00
2019-03-27T01:01:04.256Z,98.00
2019-03-27T01:02:40.407Z,98.00
2019-03-27T01:04:16.581Z,98.00
2019-03-27T01:05:52.792Z,98.00
2019-03-27T01:07:29.037Z,98.00
2019-03-27T01:09:06.557Z,98.00
2019-03-27T01:10:42.731Z,98.10
2019-03-27T01:12:19.067Z,98.10
2019-03-27T01:13:55.166Z,98.10
2019-03-27T01:15:39.738Z,98.20
2019-03-27T01:17:09.459Z,98.10
2019-03-27T01:18:45.630Z,98.20
2019-03-27T01:20:21.937Z,98.20
2019-03-27T01:21:59.452Z,98.20
2019-03-27T01:23:36.922Z,98.20
2019-03-27T01:25:14.700Z,98.20
2019-03-27T01:26:51.021Z,98.20
2019-03-27T01:28:27.214Z,98.20
2019-03-27T01:30:04.047Z,98.30
2019-03-27T01:31:40.396Z,98.20
2019-03-27T01:33:16.499Z,98.30
2019-03-27T01:34:52.333Z,98.60
2019-03-27T01:36:28.595Z,98.40
2019-03-27T01:38:04.846Z,98.70
2019-03-27T01:39:40.932Z,98.50
2019-03-27T01:41:17.062Z,98.50
2019-03-27T01:42:53.308Z,98.40
2019-03-27T01:44:29.481Z,98.50
2019-03-27T01:46:05.820Z,98.60
2019-03-27T01:47:42.060Z,98.60
2019-03-27T01:49:18.240Z,98.70
2019-03-27T01:50:54.460Z,98.60
2019-03-27T01:52:30.741Z,98.70
2019-03-27T01:54:06.990Z,98.90
2019-03-27T01:55:43.254Z,98.80
2019-03-27T01:57:19.356Z,98.80
2019-03-27T01:58:55.505Z,98.80
2019-03-27T02:00:31.771Z,98.90
2019-03-27T02:02:07.941Z,99.00
2019-03-27T02:03:44.045Z,99.00
2019-03-27T02:05:20.242Z,99.20
2019-03-27T02:06:56.551Z,99.10
2019-03-27T02:08:33.782Z,99.20
2019-03-27T02:10:10.700Z,99.20
2019-03-27T02:11:46.943Z,99.30
2019-03-27T02:13:23.182Z,99.60
2019-03-27T02:14:59.437Z,99.30
2019-03-27T02:16:35.568Z,99.40
2019-03-27T02:18:11.811Z,99.40
2019-03-27T02:19:47.984Z,99.70
2019-03-27T02:21:25.106Z,99.50
2019-03-27T02:23:01.325Z,99.40
2019-03-27T02:24:37.523Z,99.40
2019-03-27T02:26:13.773Z,99.40
2019-03-27T02:27:50.108Z,99.40
2019-03-27T02:29:26.175Z,99.50
2019-03-27T02:31:02.528Z,99.40
2019-03-27T02:32:39.893Z,99.50
2019-03-27T02:34:16.123Z,99.50
2019-03-27T02:35:52.353Z,99.50
2019-03-27T02:37:28.461Z,99.50
2019-03-27T02:39:05.512Z,99.50
2019-03-27T02:40:41.674Z,99.50
2019-03-27T02:42:17.885Z,99.50
2019-03-27T02:43:53.720Z,99.50
2019-03-27T02:45:30.026Z,99.50
2019-03-27T02:47:06.281Z,99.50
2019-03-27T02:48:42.527Z,99.50
2019-03-27T02:50:18.782Z,99.40
2019-03-27T02:51:55.106Z,99.40
2019-03-27T02:53:31.426Z,99.50
2019-03-27T02:55:09.350Z,99.50
2019-03-27T02:56:45.688Z,99.40
2019-03-27T02:58:22.007Z,99.40
2019-03-27T02:59:58.330Z,99.50
2019-03-27T03:01:34.543Z,99.40
2019-03-27T03:03:11.057Z,99.40
2019-03-27T03:04:47.202Z,99.40
2019-03-27T03:06:23.436Z,99.40
2019-03-27T03:07:59.722Z,99.10
2019-03-27T03:09:35.832Z,99.30
2019-03-27T03:11:12.149Z,99.30
2019-03-27T03:12:48.541Z,99.30
2019-03-27T03:14:24.719Z,99.20
2019-03-27T03:16:01.040Z,99.20
2019-03-27T03:17:37.281Z,99.30
2019-03-27T03:19:13.465Z,99.20
2019-03-27T03:20:49.635Z,99.30
2019-03-27T03:22:25.893Z,99.30
2019-03-27T03:24:02.241Z,99.20
2019-03-27T03:25:38.599Z,99.20
2019-03-27T03:27:14.917Z,99.20
2019-03-27T03:28:51.175Z,99.20
2019-03-27T03:30:27.521Z,99.20
2019-03-27T03:32:03.985Z,99.20
2019-03-27T03:33:40.216Z,99.20
2019-03-27T03:35:16.659Z,99.10
2019-03-27T03:36:53.003Z,99.10
2019-03-27T03:38:29.118Z,99.10
2019-03-27T03:40:06.656Z,99.10
2019-03-27T03:41:42.667Z,99.20
2019-03-27T03:43:18.921Z,99.30
2019-03-27T03:44:55.170Z,99.20
2019-03-27T03:46:31.172Z,99.20
2019-03-27T03:48:07.485Z,99.20
2019-03-27T03:49:44.857Z,99.20
2019-03-27T03:51:21.108Z,99.10
2019-03-27T03:52:57.618Z,99.20
2019-03-27T03:54:34.430Z,99.10
2019-03-27T03:56:14.023Z,99.10
2019-03-27T03:57:50.739Z,99.10
2019-03-27T03:59:30.557Z,99.10
2019-03-27T04:01:07.489Z,99.10
2019-03-27T04:02:46.609Z,99.10
2019-03-27T04:04:23.706Z,99.10
2019-03-27T04:05:59.854Z,99.00
2019-03-27T04:07:36.291Z,99.00
2019-03-27T04:09:13.597Z,99.00
2019-03-27T04:10:49.771Z,99.10
2019-03-27T04:12:25.961Z,99.10
2019-03-27T04:14:02.224Z,99.10
2019-03-27T04:15:38.637Z,99.10
2019-03-27T04:17:17.780Z,99.30
2019-03-27T04:18:53.827Z,99.10
2019-03-27T04:20:30.014Z,99.10
2019-03-27T04:22:06.325Z,99.10
2019-03-27T04:23:42.532Z,99.10
2019-03-27T04:25:20.424Z,99.10
2019-03-27T04:26:56.609Z,99.10
2019-03-27T04:28:32.720Z,99.20
2019-03-27T04:30:10.337Z,99.50
2019-03-27T04:31:46.500Z,99.10
2019-03-27T04:33:22.677Z,99.30
2019-03-27T04:34:58.482Z,99.20
2019-03-27T04:36:34.669Z,99.00
2019-03-27T04:38:10.621Z,98.90
2019-03-27T04:39:46.771Z,98.60
2019-03-27T04:41:23.115Z,98.40
2019-03-27T04:42:59.354Z,98.30
2019-03-27T04:44:37.043Z,98.00
2019-03-27T04:46:13.202Z,98.10
2019-03-27T04:47:49.546Z,97.20
2019-03-27T04:49:25.718Z,96.60
2019-03-27T04:51:02.121Z,96.10
2019-03-27T04:52:38.178Z,95.50
2019-03-27T04:54:14.415Z,94.90
2019-03-27T04:55:50.664Z,94.10
2019-03-27T04:57:26.916Z,93.30
2019-03-27T04:59:03.277Z,92.80
2019-03-27T05:00:39.564Z,92.00
2019-03-27T05:02:15.762Z,91.70
2019-03-27T05:03:52.423Z,91.00
2019-03-27T05:05:28.595Z,88.20
2019-03-27T05:07:04.969Z,90.30
2019-03-27T05:08:41.165Z,88.20
2019-03-27T05:10:17.484Z,87.50
2019-03-27T05:11:53.707Z,87.00
2019-03-27T05:13:29.990Z,88.70
2019-03-27T05:15:08.171Z,86.60
2019-03-27T05:16:44.438Z,85.50
2019-03-27T05:18:20.599Z,85.60
2019-03-27T05:19:56.756Z,82.70
2019-03-27T05:21:32.921Z,82.10
2019-03-27T05:23:09.251Z,82.00
2019-03-27T05:24:45.521Z,82.50
2019-03-27T05:26:21.620Z,82.20
2019-03-27T05:27:57.957Z,78.40
2019-03-27T05:29:34.135Z,77.20
2019-03-27T05:31:10.223Z,77.50
2019-03-27T05:32:46.456Z,76.40
2019-03-27T05:34:22.688Z,73.40
2019-03-27T05:35:59.324Z,73.10
2019-03-27T05:37:35.484Z,71.00
2019-03-27T05:39:14.419Z,70.20
2019-03-27T05:40:49.541Z,68.50
2019-03-27T05:42:25.762Z,69.70
2019-03-27T05:44:02.097Z,63.00
2019-03-27T05:45:38.442Z,61.40
2019-03-27T05:47:14.599Z,59.10
2019-03-27T05:48:50.697Z,59.90
2019-03-27T05:50:27.114Z,56.70
2019-03-27T05:52:03.220Z,57.10
2019-03-27T05:53:39.399Z,56.80
2019-03-27T05:55:15.463Z,56.30
2019-03-27T05:56:51.623Z,55.90
2019-03-27T05:58:27.813Z,54.80
2019-03-27T06:00:07.079Z,55.60
2019-03-27T06:01:43.146Z,55.20
2019-03-27T06:03:19.408Z,56.00
2019-03-27T06:04:55.793Z,53.40
2019-03-27T06:06:32.128Z,54.30
2019-03-27T06:08:08.298Z,54.50
2019-03-27T06:09:44.632Z,54.30
2019-03-27T06:11:20.709Z,54.60
2019-03-27T06:12:56.964Z,54.10
2019-03-27T06:14:33.137Z,54.30
2019-03-27T06:16:09.300Z,53.30
2019-03-27T06:17:45.545Z,53.20
2019-03-27T06:19:21.777Z,53.40
2019-03-27T06:20:57.840Z,53.10
2019-03-27T06:22:33.942Z,52.90
2019-03-27T06:24:10.185Z,52.70
2019-03-27T06:25:46.352Z,53.10
2019-03-27T06:27:22.427Z,53.00
2019-03-27T06:28:58.364Z,52.00
2019-03-27T06:30:34.614Z,52.10
2019-03-27T06:32:10.852Z,53.00
2019-03-27T06:33:46.947Z,51.80
2019-03-27T06:35:23.499Z,52.70
2019-03-27T06:36:59.847Z,52.60
2019-03-27T06:38:35.986Z,53.10
2019-03-27T06:40:12.587Z,52.70
2019-03-27T06:41:48.918Z,52.80
2019-03-27T06:43:26.934Z,52.90
2019-03-27T06:45:03.647Z,53.10
2019-03-27T06:46:39.780Z,54.00
2019-03-27T06:48:25.730Z,56.40
2019-03-27T06:49:53.701Z,57.70
2019-03-27T06:51:39.533Z,56.90
2019-03-27T06:53:07.750Z,57.50
2019-03-27T06:54:43.888Z,56.30
2019-03-27T06:56:20.170Z,56.90
2019-03-27T06:57:56.439Z,58.50
2019-03-27T06:59:32.601Z,58.20
2019-03-27T07:01:08.831Z,60.00
2019-03-27T07:02:45.639Z,58.40
2019-03-27T07:04:22.046Z,57.40
2019-03-27T07:05:58.274Z,59.60
2019-03-27T07:07:34.510Z,62.70
2019-03-27T07:09:10.936Z,60.00
2019-03-27T07:10:47.230Z,60.20
2019-03-27T07:12:23.490Z,60.70
2019-03-27T07:13:59.206Z,62.60
2019-03-27T07:15:35.940Z,60.90
2019-03-27T07:17:11.855Z,60.50
2019-03-27T07:18:47.952Z,59.70
2019-03-27T07:20:24.167Z,59.60
2019-03-27T07:22:00.311Z,61.20
2019-03-27T07:23:37.677Z,60.20
2019-03-27T07:25:14.547Z,57.00
2019-03-27T07:26:50.779Z,58.20
2019-03-27T07:28:27.010Z,57.80
2019-03-27T07:30:03.325Z,57.70
2019-03-27T07:31:39.554Z,57.90
2019-03-27T07:33:15.795Z,56.10
2019-03-27T07:34:51.893Z,54.60
2019-03-27T07:36:28.130Z,54.60
2019-03-27T07:38:04.492Z,55.60
2019-03-27T07:39:40.699Z,54.40
2019-03-27T07:41:17.004Z,57.10
2019-03-27T07:42:54.363Z,56.80
2019-03-27T07:44:30.682Z,57.50
2019-03-27T07:46:07.017Z,56.80
2019-03-27T07:47:43.336Z,56.80
2019-03-27T07:49:19.688Z,54.60
2019-03-27T07:50:56.019Z,52.90
2019-03-27T07:52:32.176Z,52.70
2019-03-27T07:54:08.505Z,53.30
2019-03-27T07:55:44.868Z,54.00
2019-03-27T07:57:21.106Z,53.50
2019-03-27T07:58:59.905Z,54.40
2019-03-27T08:00:36.278Z,55.60
2019-03-27T08:02:12.614Z,55.20
2019-03-27T08:03:48.779Z,55.70
2019-03-27T08:05:25.029Z,55.10
2019-03-27T08:07:01.184Z,53.00
2019-03-27T08:08:37.423Z,53.90
2019-03-27T08:10:15.022Z,53.90
2019-03-27T08:11:51.121Z,52.80
2019-03-27T08:13:27.318Z,52.80
2019-03-27T08:15:04.627Z,51.70
2019-03-27T08:16:41.909Z,52.30
2019-03-27T08:18:20.923Z,51.90
2019-03-27T08:19:58.629Z,50.90
2019-03-27T08:21:34.863Z,54.00
2019-03-27T08:23:11.120Z,54.40
2019-03-27T08:24:47.286Z,52.70
2019-03-27T08:26:23.456Z,52.20
2019-03-27T08:27:59.685Z,51.40
2019-03-27T08:29:35.859Z,51.20
2019-03-27T08:31:11.986Z,51.80
2019-03-27T08:32:48.230Z,51.60
2019-03-27T08:34:24.464Z,51.00
2019-03-27T08:36:00.558Z,50.90
2019-03-27T08:37:36.809Z,50.70
2019-03-27T08:39:12.988Z,51.30
2019-03-27T08:40:49.293Z,50.10
2019-03-27T08:42:25.534Z,48.70
2019-03-27T08:44:01.627Z,48.70
2019-03-27T08:45:39.752Z,48.00
2019-03-27T08:47:15.993Z,48.00
2019-03-27T08:48:52.278Z,47.90
2019-03-27T08:50:29.699Z,48.40
2019-03-27T08:52:05.998Z,47.20
2019-03-27T08:53:42.331Z,47.90
2019-03-27T08:55:18.649Z,48.50
2019-03-27T08:56:54.905Z,48.00
2019-03-27T08:58:31.171Z,48.00
2019-03-27T09:00:11.355Z,47.10
2019-03-27T09:01:47.576Z,47.90
2019-03-27T09:03:24.025Z,48.90
2019-03-27T09:04:59.866Z,46.20
2019-03-27T09:06:36.144Z,47.10
2019-03-27T09:08:12.447Z,49.50
2019-03-27T09:09:48.761Z,48.60
2019-03-27T09:11:26.460Z,47.10
2019-03-27T09:13:02.624Z,47.10
2019-03-27T09:14:39.460Z,47.50
2019-03-27T09:16:15.706Z,47.80
2019-03-27T09:17:53.450Z,47.20
2019-03-27T09:19:35.752Z,46.30
2019-03-27T09:21:08.817Z,46.30
2019-03-27T09:22:45.046Z,45.20
2019-03-27T09:24:21.370Z,45.90
2019-03-27T09:25:57.527Z,45.50
2019-03-27T09:27:33.770Z,46.00
2019-03-27T09:29:09.954Z,44.60
2019-03-27T09:30:46.258Z,44.70
2019-03-27T09:32:22.417Z,44.70
2019-03-27T09:33:58.965Z,43.70
2019-03-27T09:35:35.265Z,43.20
2019-03-27T09:37:11.494Z,45.40
2019-03-27T09:38:47.729Z,46.30
2019-03-27T09:40:24.035Z,47.20
2019-03-27T09:42:00.245Z,46.30
2019-03-27T09:43:36.556Z,48.00
2019-03-27T09:45:15.328Z,47.10
2019-03-27T09:46:51.189Z,45.80
2019-03-27T09:48:27.460Z,49.20
2019-03-27T09:50:05.302Z,48.20
2019-03-27T09:51:41.537Z,47.60
2019-03-27T09:53:17.971Z,47.00
2019-03-27T09:54:54.139Z,47.00
2019-03-27T09:56:30.319Z,47.20
2019-03-27T09:58:06.632Z,46.60
2019-03-27T09:59:42.785Z,47.10
2019-03-27T10:01:19.015Z,46.10
2019-03-27T10:02:57.253Z,44.70
2019-03-27T10:04:33.055Z,43.90
2019-03-27T10:06:09.364Z,43.20
2019-03-27T10:07:45.538Z,43.20
2019-03-27T10:09:21.616Z,45.00
2019-03-27T10:10:57.982Z,43.90
2019-03-27T10:12:34.058Z,44.20
2019-03-27T10:14:10.230Z,44.00
2019-03-27T10:15:46.397Z,43.10
2019-03-27T10:17:22.572Z,41.30
2019-03-27T10:18:58.731Z,41.90
2019-03-27T10:20:34.901Z,42.40
2019-03-27T10:22:11.163Z,41.90
2019-03-27T10:23:47.471Z,41.40
2019-03-27T10:25:23.611Z,42.00
2019-03-27T10:26:59.916Z,41.00
2019-03-27T10:28:36.152Z,41.60
2019-03-27T10:30:12.948Z,41.50
2019-03-27T10:31:49.280Z,41.70
2019-03-27T10:33:25.493Z,41.70
2019-03-27T10:35:01.859Z,41.60
2019-03-27T10:36:38.029Z,41.20
2019-03-27T10:38:14.481Z,41.20
2019-03-27T10:39:50.751Z,41.60
2019-03-27T10:41:27.069Z,40.80
2019-03-27T10:43:03.241Z,40.50
2019-03-27T10:44:39.411Z,40.70
2019-03-27T10:46:15.614Z,40.20
2019-03-27T10:47:51.740Z,40.10
2019-03-27T10:49:27.979Z,40.00
2019-03-27T10:51:04.544Z,38.80
2019-03-27T10:52:40.951Z,39.60
2019-03-27T10:54:17.247Z,39.60
2019-03-27T10:55:53.550Z,39.20
2019-03-27T10:57:29.654Z,38.80
2019-03-27T10:59:05.812Z,39.10
2019-03-27T11:00:42.069Z,39.30
2019-03-27T11:02:18.368Z,39.10
2019-03-27T11:03:54.462Z,38.60
2019-03-27T11:05:30.767Z,38.00
2019-03-27T11:07:07.166Z,38.30
2019-03-27T11:08:44.584Z,37.70
2019-03-27T11:10:20.893Z,37.50
2019-03-27T11:11:57.116Z,37.00
2019-03-27T11:13:34.563Z,36.60
2019-03-27T11:15:12.162Z,36.20
2019-03-27T11:16:48.166Z,35.90
2019-03-27T11:18:24.431Z,36.40
2019-03-27T11:20:00.531Z,37.20
2019-03-27T11:21:36.563Z,36.20
2019-03-27T11:23:12.801Z,36.90
2019-03-27T11:24:48.962Z,35.90
2019-03-27T11:26:25.226Z,36.20
2019-03-27T11:28:01.557Z,36.20
2019-03-27T11:29:37.790Z,35.90
2019-03-27T11:31:14.025Z,34.80
2019-03-27T11:32:50.193Z,35.30
2019-03-27T11:34:26.423Z,34.50
2019-03-27T11:36:02.604Z,34.30
2019-03-27T11:37:38.774Z,34.30
2019-03-27T11:39:15.112Z,34.60
2019-03-27T11:40:51.371Z,34.70
2019-03-27T11:42:27.533Z,33.90
2019-03-27T11:44:03.694Z,33.70
2019-03-27T11:45:40.208Z,33.80
2019-03-27T11:47:16.330Z,33.50
2019-03-27T11:48:52.682Z,33.40
2019-03-27T11:50:29.089Z,34.30
2019-03-27T11:52:05.401Z,35.30
2019-03-27T11:53:41.496Z,35.50
2019-03-27T11:55:17.804Z,35.90
2019-03-27T11:56:54.099Z,35.70
2019-03-27T11:58:30.401Z,34.00
2019-03-27T12:00:10.558Z,32.70
2019-03-27T12:01:46.712Z,31.90
2019-03-27T12:03:23.099Z,31.90
2019-03-27T12:04:59.293Z,33.00
2019-03-27T12:06:35.661Z,33.90
2019-03-27T12:08:11.522Z,33.40
2019-03-27T12:09:47.822Z,34.00
2019-03-27T12:11:24.058Z,33.30
2019-03-27T12:13:00.305Z,33.10
2019-03-27T12:14:36.730Z,32.80
2019-03-27T12:16:14.094Z,32.70
2019-03-27T12:17:50.264Z,31.30
2019-03-27T12:19:26.423Z,30.40
2019-03-27T12:21:02.651Z,29.80
2019-03-27T12:22:38.906Z,29.80
2019-03-27T12:24:14.894Z,31.00
2019-03-27T12:25:51.128Z,31.30
2019-03-27T12:27:27.330Z,32.10
2019-03-27T12:29:03.531Z,30.60
2019-03-27T12:30:39.764Z,30.90
2019-03-27T12:32:28.371Z,30.50
2019-03-27T12:34:04.547Z,30.70
2019-03-27T12:35:40.637Z,31.30
2019-03-27T12:37:16.798Z,31.30
2019-03-27T12:38:53.048Z,32.00
2019-03-27T12:40:29.371Z,32.70
2019-03-27T12:42:05.678Z,30.70
2019-03-27T12:43:42.063Z,31.70
2019-03-27T12:45:18.302Z,31.20
2019-03-27T12:46:54.091Z,32.50
2019-03-27T12:48:30.259Z,32.60
2019-03-27T12:50:08.855Z,32.50
2019-03-27T12:51:44.926Z,31.70
2019-03-27T12:53:20.724Z,32.20
2019-03-27T12:54:56.960Z,31.70
2019-03-27T12:56:33.249Z,32.10
2019-03-27T12:58:11.731Z,31.30
2019-03-27T12:59:47.476Z,31.10
2019-03-27T13:01:23.636Z,31.40
2019-03-27T13:02:59.887Z,30.30
2019-03-27T13:04:36.042Z,30.00
2019-03-27T13:06:12.353Z,30.00
2019-03-27T13:07:50.218Z,30.30
2019-03-27T13:09:26.665Z,30.80
2019-03-27T13:11:02.902Z,30.90
2019-03-27T13:12:39.059Z,30.30
2019-03-27T13:14:15.230Z,30.20
2019-03-27T13:15:51.416Z,30.50
2019-03-27T13:17:27.654Z,30.00
2019-03-27T13:19:03.922Z,29.80
2019-03-27T13:20:40.162Z,28.90
2019-03-27T13:22:16.161Z,28.60
2019-03-27T13:23:52.390Z,28.50
2019-03-27T13:25:28.607Z,29.10
2019-03-27T13:27:06.238Z,29.80
2019-03-27T13:28:48.624Z,30.00
2019-03-27T13:30:20.685Z,30.00
2019-03-27T13:31:57.000Z,30.20
2019-03-27T13:33:33.097Z,30.10
2019-03-27T13:35:10.636Z,30.00
2019-03-27T13:36:48.306Z,29.70
2019-03-27T13:38:24.469Z,29.40
2019-03-27T13:40:01.251Z,29.70
2019-03-27T13:41:37.421Z,29.50
2019-03-27T13:43:13.590Z,29.60
2019-03-27T13:44:49.816Z,29.50
2019-03-27T13:46:25.808Z,29.10
2019-03-27T13:48:02.002Z,28.40
2019-03-27T13:49:38.245Z,28.70
2019-03-27T13:51:14.841Z,28.30
2019-03-27T13:52:51.048Z,29.10
2019-03-27T13:54:27.331Z,29.50
2019-03-27T13:56:03.563Z,30.20
2019-03-27T13:57:39.910Z,29.30
2019-03-27T13:59:16.067Z,29.20
2019-03-27T14:00:52.380Z,29.60
2019-03-27T14:02:28.604Z,29.90
2019-03-27T14:04:04.939Z,29.90
2019-03-27T14:05:41.196Z,30.10
2019-03-27T14:07:17.442Z,29.90
2019-03-27T14:08:53.698Z,30.20
2019-03-27T14:10:29.967Z,30.40
2019-03-27T14:12:06.305Z,30.30
2019-03-27T14:13:43.591Z,30.50
2019-03-27T14:15:20.358Z,31.30
2019-03-27T14:16:56.519Z,31.20
2019-03-27T14:18:32.711Z,31.20
2019-03-27T14:20:10.608Z,31.70
2019-03-27T14:21:54.479Z,30.80
2019-03-27T14:23:25.719Z,30.70
2019-03-27T14:25:01.814Z,31.20
2019-03-27T14:26:45.013Z,30.80
2019-03-27T14:28:15.669Z,31.50
2019-03-27T14:29:51.966Z,32.30
2019-03-27T14:31:28.140Z,32.10
2019-03-27T14:33:04.518Z,32.30
2019-03-27T14:34:40.579Z,32.10
2019-03-27T14:36:16.750Z,32.40
2019-03-27T14:37:52.850Z,32.60
2019-03-27T14:39:29.200Z,32.10
2019-03-27T14:41:05.410Z,32.40
2019-03-27T14:42:41.647Z,31.70
2019-03-27T14:44:17.818Z,32.10
2019-03-27T14:45:54.058Z,32.50
2019-03-27T14:47:30.251Z,32.80
2019-03-27T14:49:06.459Z,33.60
2019-03-27T14:50:42.743Z,34.20
2019-03-27T14:52:19.078Z,33.90
2019-03-27T14:53:56.470Z,33.60
2019-03-27T14:55:32.605Z,33.10
2019-03-27T14:57:08.800Z,33.50
2019-03-27T14:58:45.041Z,33.90
2019-03-27T15:00:21.349Z,34.20
2019-03-27T15:01:57.495Z,33.80
2019-03-27T15:03:33.792Z,34.20
2019-03-27T15:05:11.495Z,33.30
2019-03-27T15:06:47.699Z,32.70
2019-03-27T15:08:24.043Z,32.40
2019-03-27T15:10:00.395Z,32.80
2019-03-27T15:11:36.732Z,33.10
2019-03-27T15:13:15.264Z,33.10
2019-03-27T15:14:51.254Z,32.70
2019-03-27T15:16:27.421Z,32.60
2019-03-27T15:18:03.839Z,33.30
2019-03-27T15:19:39.934Z,33.00
2019-03-27T15:21:16.212Z,33.30
2019-03-27T15:22:52.448Z,33.20
2019-03-27T15:24:28.612Z,33.20
2019-03-27T15:26:04.685Z,32.80
2019-03-27T15:27:40.884Z,32.90
2019-03-27T15:29:16.982Z,33.50
2019-03-27T15:30:53.283Z,34.00
2019-03-27T15:32:29.517Z,33.70
2019-03-27T15:34:05.821Z,33.40
2019-03-27T15:35:44.606Z,33.40
2019-03-27T15:37:19.953Z,33.40
2019-03-27T15:38:56.113Z,33.80
2019-03-27T15:40:48.022Z,34.20
2019-03-27T15:42:24.351Z,34.10
2019-03-27T15:44:00.583Z,34.10
2019-03-27T15:45:36.739Z,34.50
2019-03-27T15:47:13.080Z,34.80
2019-03-27T15:48:49.165Z,35.30
2019-03-27T15:50:25.389Z,35.70
2019-03-27T15:52:01.560Z,36.20
2019-03-27T15:53:37.810Z,36.50
2019-03-27T15:55:14.316Z,36.80
2019-03-27T15:56:50.466Z,36.90
2019-03-27T15:58:26.757Z,37.50
2019-03-27T16:00:03.960Z,37.50
2019-03-27T16:01:40.158Z,37.90
2019-03-27T16:03:16.419Z,37.80
2019-03-27T16:04:52.640Z,38.10
2019-03-27T16:06:28.798Z,38.60
2019-03-27T16:08:05.221Z,38.80
2019-03-27T16:09:41.477Z,39.00
2019-03-27T16:11:17.575Z,39.40
2019-03-27T16:12:53.832Z,39.80
2019-03-27T16:14:29.995Z,40.20
2019-03-27T16:16:06.393Z,40.10
2019-03-27T16:17:42.780Z,40.50
2019-03-27T16:19:19.011Z,40.40
2019-03-27T16:20:55.245Z,40.30
2019-03-27T16:22:31.502Z,40.30
2019-03-27T16:24:07.899Z,40.40
2019-03-27T16:25:44.125Z,40.90
2019-03-27T16:27:20.351Z,41.10
2019-03-27T16:28:56.215Z,41.60
2019-03-27T16:30:32.460Z,41.90
2019-03-27T16:32:08.693Z,42.50
2019-03-27T16:33:44.853Z,42.60
2019-03-27T16:35:23.596Z,43.00
2019-03-27T16:36:59.697Z,43.30
2019-03-27T16:38:35.933Z,43.60
2019-03-27T16:40:13.635Z,43.90
2019-03-27T16:41:49.700Z,44.30
2019-03-27T16:43:26.036Z,44.80
2019-03-27T16:45:02.272Z,45.10
2019-03-27T16:46:38.577Z,45.60
2019-03-27T16:48:14.987Z,46.10
2019-03-27T16:49:51.385Z,46.40
2019-03-27T16:51:27.647Z,46.80
2019-03-27T16:53:04.120Z,47.50
2019-03-27T16:54:40.454Z,48.00
2019-03-27T16:56:16.682Z,48.60
2019-03-27T16:57:52.989Z,49.00
2019-03-27T16:59:29.351Z,50.00
2019-03-27T17:01:05.769Z,50.10
2019-03-27T17:02:42.029Z,50.30
2019-03-27T17:04:18.127Z,50.50
2019-03-27T17:05:54.634Z,51.20
2019-03-27T17:07:30.930Z,51.50
2019-03-27T17:09:08.923Z,52.00
2019-03-27T17:10:45.148Z,52.20
2019-03-27T17:12:21.391Z,52.50
2019-03-27T17:13:57.678Z,52.80
2019-03-27T17:15:33.836Z,53.20
2019-03-27T17:17:09.998Z,53.50
2019-03-27T17:18:46.189Z,53.60
2019-03-27T17:20:22.599Z,54.00
2019-03-27T17:21:58.834Z,54.80
2019-03-27T17:23:35.000Z,55.40
2019-03-27T17:25:11.612Z,55.90
2019-03-27T17:26:47.836Z,56.10
2019-03-27T17:28:24.004Z,56.20
2019-03-27T17:30:00.339Z,56.60
2019-03-27T17:31:36.714Z,56.90
2019-03-27T17:33:13.010Z,57.40
2019-03-27T17:34:51.800Z,57.60
2019-03-27T17:36:27.182Z,58.10
2019-03-27T17:38:03.479Z,58.30
2019-03-27T17:39:39.782Z,58.80
2019-03-27T17:41:16.019Z,59.00
2019-03-27T17:42:52.176Z,59.20
2019-03-27T17:44:28.476Z,59.70
2019-03-27T17:46:04.946Z,60.00
2019-03-27T17:47:41.367Z,60.60
2019-03-27T17:49:17.580Z,61.40
2019-03-27T17:50:53.896Z,61.90
2019-03-27T17:52:30.217Z,62.20
2019-03-27T17:54:19.586Z,62.90
2019-03-27T17:55:44.498Z,63.80
2019-03-27T17:57:20.802Z,63.60
2019-03-27T17:58:56.741Z,64.30
2019-03-27T18:00:49.556Z,65.50
2019-03-27T18:02:25.306Z,64.60
2019-03-27T18:04:01.577Z,65.70
2019-03-27T18:05:38.764Z,65.60
2019-03-27T18:07:14.986Z,65.90
2019-03-27T18:08:52.420Z,66.30
2019-03-27T18:10:28.890Z,66.60
2019-03-27T18:12:05.267Z,66.80
2019-03-27T18:13:41.572Z,67.10
2019-03-27T18:15:17.822Z,67.80
2019-03-27T18:16:54.047Z,68.10
2019-03-27T18:18:30.232Z,68.20
2019-03-27T18:20:07.032Z,68.80
2019-03-27T18:21:43.168Z,69.00
2019-03-27T18:23:19.300Z,69.50
2019-03-27T18:24:55.539Z,69.70
2019-03-27T18:26:31.691Z,69.80
2019-03-27T18:28:07.763Z,70.20
2019-03-27T18:29:44.067Z,70.30
2019-03-27T18:31:20.235Z,70.70
2019-03-27T18:32:56.427Z,70.70
2019-03-27T18:34:32.737Z,71.40
2019-03-27T18:36:09.732Z,71.30
2019-03-27T18:37:45.890Z,71.60
2019-03-27T18:39:22.125Z,71.70
2019-03-27T18:40:57.994Z,71.70
2019-03-27T18:42:34.259Z,71.90
2019-03-27T18:44:10.566Z,72.40
2019-03-27T18:45:46.694Z,72.50
2019-03-27T18:47:22.927Z,72.70
2019-03-27T18:48:59.159Z,72.80
2019-03-27T18:50:35.426Z,72.80
2019-03-27T18:52:11.820Z,72.80
2019-03-27T18:53:58.818Z,73.10
2019-03-27T18:55:27.137Z,73.30
2019-03-27T18:57:03.523Z,73.40
2019-03-27T18:58:39.683Z,73.80
2019-03-27T19:00:16.635Z,73.90
2019-03-27T19:01:52.471Z,74.00
2019-03-27T19:03:28.571Z,74.10
2019-03-27T19:05:07.082Z,74.10
2019-03-27T19:06:43.137Z,74.30
2019-03-27T19:08:19.398Z,74.40
2019-03-27T19:09:55.503Z,74.30
2019-03-27T19:11:31.810Z,74.60
2019-03-27T19:13:08.041Z,74.50
2019-03-27T19:14:44.454Z,74.50
2019-03-27T19:16:20.607Z,74.60
2019-03-27T19:17:58.164Z,74.90
2019-03-27T19:19:34.342Z,74.90
2019-03-27T19:21:10.446Z,75.00
2019-03-27T19:22:46.850Z,75.20
2019-03-27T19:24:23.137Z,75.30
2019-03-27T19:25:59.470Z,75.30
2019-03-27T19:27:35.777Z,75.30
2019-03-27T19:29:12.031Z,75.10
2019-03-27T19:30:48.307Z,75.10
2019-03-27T19:32:24.695Z,75.30
2019-03-27T19:34:00.928Z,75.40
2019-03-27T19:35:37.243Z,75.90
2019-03-27T19:37:13.489Z,75.90
2019-03-27T19:38:49.657Z,76.10
2019-03-27T19:40:26.047Z,76.40
2019-03-27T19:42:02.295Z,76.30
2019-03-27T19:43:38.393Z,76.30
2019-03-27T19:45:14.893Z,76.30
2019-03-27T19:46:51.231Z,76.30
2019-03-27T19:48:27.467Z,76.50
2019-03-27T19:50:04.982Z,76.20
2019-03-27T19:51:41.215Z,76.40
2019-03-27T19:53:17.552Z,76.30
2019-03-27T19:54:53.980Z,76.10
2019-03-27T19:56:30.484Z,76.60
2019-03-27T19:58:06.894Z,76.90
2019-03-27T19:59:43.169Z,76.70
2019-03-27T20:01:19.439Z,76.60
2019-03-27T20:02:55.808Z,76.60
2019-03-27T20:04:32.043Z,76.60
2019-03-27T20:06:08.208Z,76.90
2019-03-27T20:07:44.455Z,77.10
2019-03-27T20:09:22.393Z,76.90
2019-03-27T20:10:59.825Z,77.30
2019-03-27T20:12:36.286Z,77.30
2019-03-27T20:14:12.570Z,77.80
2019-03-27T20:15:48.748Z,77.90
2019-03-27T20:17:25.107Z,77.60
2019-03-27T20:19:01.510Z,78.20
2019-03-27T20:20:37.964Z,77.60
2019-03-27T20:22:14.097Z,77.40
2019-03-27T20:23:50.432Z,78.50
2019-03-27T20:25:26.872Z,78.30
2019-03-27T20:27:03.243Z,78.20
2019-03-27T20:28:39.584Z,77.60
2019-03-27T20:30:19.521Z,79.00
2019-03-27T20:31:55.467Z,79.00
2019-03-27T20:33:31.782Z,78.70
2019-03-27T20:35:08.617Z,79.20
2019-03-27T20:36:44.825Z,79.30
2019-03-27T20:38:21.140Z,79.60
2019-03-27T20:39:57.405Z,79.50
2019-03-27T20:41:33.759Z,79.60
2019-03-27T20:43:10.001Z,80.00